GMTTGMMW

Guest
Details From GMTT - IBN BATOUTA
To GMMW - EL AROUI
Flight Number -
Tags generated
Created
Modified
Stats Distance 148 nm / 275 km
Max Altitude 9,500 ft / 2,896 m
Waypoints 4
Social Downloads 0
Likes 0
Share VATSIM

Download

Looking for another format? Having issues loading an existing format? Contact us
Advertisement - Login to hide

Notes

Basic altitude profile: - Ascent Rate: 2500ft/min - Ascent Speed: 250kts - Cruise Altitude: 35000ft - Cruise Speed: 420kts - Descent Rate: 1500ft/min - Descent Speed: 250kts Options: - Use NATs: yes - Use PACOTS: yes - Use low airways: yes - Use high airways: yes

Route

GMTT ALM A621 ARI GMMW

ID Type Via Altitude Latitude Longitude Leg Dist Tot Dist Heading (true) Name
O GMTT APT - 0 ft / 0 m 35.72691˚ -5.91690˚ - 0 nm - IBN BATOUTA
ALM VOR - 8,900 ft / 2,713 m 35.19108˚ -3.84173˚ 106 nm 106 nm 107° / 108° AL HOCEIMA VOR-DME
ARI VOR A621 (AWY-LO) 9,500 ft / 2,896 m 34.98667˚ -3.02917˚ 41 nm 148 nm 107° / 107° NADOR ARWI VOR-DME
O GMMW APT - 0 ft / 0 m 34.98878˚ -3.02820˚ 0 nm 148 nm 20° / 20° EL AROUI

Altitude Profile

Advertisement - Login to hide

GMTT

Details ICAO GMTT (TNG)
Name IBN BATOUTA
Region Morocco
Timezone Africa/Casablanca (UTC+0.0)
Stats Elevation 62 ft / 19 m (AMSL)
Location 35.726911° -5.916900°
Runways 2
Magnetic Variation 1.290° W

METAR

GMTT 150230Z 21011KT 180V240 4200 DZ SCT005 SCT010 12/11 Q1021 NOSIG

Decode

TAF

TAF GMTT 142300Z 1500/1606 20018KT 6000 -DZ SCT010 BKN020 TEMPO 1502/1508 4000 RA BECMG 1516/1518 3000 RA BKN014

Decode

Departure Runways

ID Width Length Bearing (true) Bearing (mag) Surface Threshold Offset Overrun Length
07 98 ft / 30 m 6,555 ft / 1,998 m 69.91° 71.20° Asphalt 0 ft / 0 m 0 ft / 0 m
10 148 ft / 45 m 11,465 ft / 3,495 m 96.01° 97.30° Asphalt 0 ft / 0 m 197 ft / 60 m
25 98 ft / 30 m 6,555 ft / 1,998 m 249.92° 251.21° Asphalt 0 ft / 0 m 0 ft / 0 m
28 148 ft / 45 m 11,465 ft / 3,495 m 276.03° 277.32° Asphalt 1,640 ft / 500 m 197 ft / 60 m

GMMW

Details ICAO GMMW (NDR)
Name EL AROUI
Region Morocco
Timezone Africa/Casablanca (UTC+0.0)
Stats Elevation 574 ft / 175 m (AMSL)
Location 34.988779° -3.028204°
Runways 1
Magnetic Variation 0.477° W

METAR

GMMW 150200Z 22006KT CAVOK 12/06 Q1019 NOSIG

Decode

TAF

TAF GMMW 142300Z 1500/1606 18007KT 8000 SCT013 SCT220

Decode

Destination Runways

ID Width Length Bearing (true) Bearing (mag) Surface Threshold Offset Overrun Length
08 148 ft / 45 m 9,825 ft / 2,995 m 77.96° 78.44° Asphalt 0 ft / 0 m 0 ft / 0 m
26 148 ft / 45 m 9,825 ft / 2,995 m 257.97° 258.45° Asphalt 0 ft / 0 m 0 ft / 0 m